CSCL Arctic Ocean — VROD9 — position and weather

sailwx.info

Track history (hours):
 
Tides and Currents Weather Stations Pressure Air Temp Water Temp Dewpoint Dewpoint Depression Visibility Wind Speed Wind Dir Waves Ship Positions

CSCL Arctic Ocean

Last reported at 2017-Dec-08 00:48 UTC. Time now 2017-Dec-12 14:20 UTC.
Position N 01°13' E 103°29'.

Length 400 m; draft 15.9 m.

Type: Ship (hazmat cat A). MMSI: 477967700.

Date/timePositionNaut miles runAvg speedWind from/ knotsBaromVisibWave heightAir tempDewpointWater temp
2017-Dec-08 00:48N 01°13' E 103°29'517.3
2017-Dec-08 00:30N 01°12' E 103°34'714.5
2017-Dec-08 00:00N 01°10' E 103°41'611.4
2017-Dec-07 23:30N 01°09' E 103°46'4 8.8
2017-Dec-07 23:00N 01°14' E 103°47'2 4.6
2017-Dec-07 22:29N 01°16' E 103°47'0 0.4
2017-Dec-07 21:59N 01°16' E 103°47'0 0.0
2017-Dec-07 21:29N 01°16' E 103°47'0 0.0
2017-Dec-07 20:59N 01°16' E 103°47'0 0.0
2017-Dec-07 20:29N 01°16' E 103°47'0 0.0
2017-Dec-07 19:56N 01°16' E 103°47'0 0.0
2017-Dec-07 19:29N 01°16' E 103°47'0 0.0
2017-Dec-07 18:59N 01°16' E 103°47'0 0.0
2017-Dec-07 18:23N 01°16' E 103°47'0 0.0
2017-Dec-07 17:59N 01°16' E 103°47'0 0.0
2017-Dec-07 17:23N 01°16' E 103°47'0 0.0
2017-Dec-07 16:59N 01°16' E 103°47'0 0.0
2017-Dec-07 16:26N 01°16' E 103°47'0 0.0
2017-Dec-07 15:56N 01°16' E 103°47'0 0.0
2017-Dec-07 15:29N 01°16' E 103°47'0 0.0
2017-Dec-07 14:59N 01°16' E 103°47'0 0.0
2017-Dec-07 14:29N 01°16' E 103°47'0 0.0
2017-Dec-07 13:56N 01°16' E 103°47'0 0.0
2017-Dec-07 13:26N 01°16' E 103°47'0 0.0
2017-Dec-07 12:59N 01°16' E 103°47'0 0.0
2017-Dec-07 12:29N 01°16' E 103°47'0 0.0
2017-Dec-07 11:59N 01°16' E 103°47'0 0.0
2017-Dec-07 11:29N 01°16' E 103°47'0 0.0
2017-Dec-07 10:59N 01°16' E 103°47'0 0.0
2017-Dec-07 10:29N 01°16' E 103°47'0 0.0
2017-Dec-07 09:56N 01°16' E 103°47'0 0.0
2017-Dec-07 09:29N 01°16' E 103°47'0 0.0
2017-Dec-07 08:59N 01°16' E 103°47'0 0.0
2017-Dec-07 08:29N 01°16' E 103°47'0 0.0
2017-Dec-07 07:56N 01°16' E 103°47'0 0.0
2017-Dec-07 07:29N 01°16' E 103°47'0 0.0
2017-Dec-07 06:59N 01°16' E 103°47'0 0.0
2017-Dec-07 06:26N 01°16' E 103°47'0 0.0
2017-Dec-07 06:00N 01°16' E 103°47'1 1.6
2017-Dec-07 05:30N 01°15' E 103°47'1 1.2
2017-Dec-07 05:00N 01°15' E 103°47'4 7.1
2017-Dec-07 04:30N 01°12' E 103°50'5 9.7
2017-Dec-07 04:00N 01°14' E 103°54'510.4
2017-Dec-07 03:30N 01°15' E 103°59'611.7
2017-Dec-07 03:00N 01°16' E 104°05'714.4
2017-Dec-07 02:30N 01°17' E 104°12'  
2017-Dec-01 14:59N 24°15' E 118°15'815.9
2017-Dec-01 14:30N 24°21' E 118°09'611.8
2017-Dec-01 14:00N 24°25' E 118°05'5 9.7
2017-Dec-01 13:30N 24°27' E 117°60'1 0.7
2017-Dec-01 11:45N 24°27' E 117°58'0 0.0
2017-Nov-30 14:37N 24°27' E 117°58'0 1.7
2017-Nov-30 14:29N 24°27' E 117°59'3 6.5
2017-Nov-30 14:00N 24°26' E 118°02'510.7
2017-Nov-30 13:30N 24°23' E 118°07'510.3
2017-Nov-30 13:00N 24°20' E 118°11'712.9
2017-Nov-30 12:27N 24°14' E 118°16'  
Track history (hours):
 
Tides and Currents Weather Stations Pressure Air Temp Water Temp Dewpoint Dewpoint Depression Visibility Wind Speed Wind Dir Waves Ship Positions

CSCL Arctic Ocean

Last reported at 2017-Dec-08 00:48 UTC. Time now 2017-Dec-12 14:20 UTC.
Position N 01°13' E 103°29'.

Length 400 m; draft 15.9 m.

Type: Ship (hazmat cat A). MMSI: 477967700.

Date/timePositionNaut miles runAvg speedWind from/ knotsBaromVisibWave heightAir tempDewpointWater temp
2017-Dec-08 00:48N 01°13' E 103°29'517.3
2017-Dec-08 00:30N 01°12' E 103°34'714.5
2017-Dec-08 00:00N 01°10' E 103°41'611.4
2017-Dec-07 23:30N 01°09' E 103°46'4 8.8
2017-Dec-07 23:00N 01°14' E 103°47'2 4.6
2017-Dec-07 22:29N 01°16' E 103°47'0 0.4
2017-Dec-07 21:59N 01°16' E 103°47'0 0.0
2017-Dec-07 21:29N 01°16' E 103°47'0 0.0
2017-Dec-07 20:59N 01°16' E 103°47'0 0.0
2017-Dec-07 20:29N 01°16' E 103°47'0 0.0
2017-Dec-07 19:56N 01°16' E 103°47'0 0.0
2017-Dec-07 19:29N 01°16' E 103°47'0 0.0
2017-Dec-07 18:59N 01°16' E 103°47'0 0.0
2017-Dec-07 18:23N 01°16' E 103°47'0 0.0
2017-Dec-07 17:59N 01°16' E 103°47'0 0.0
2017-Dec-07 17:23N 01°16' E 103°47'0 0.0
2017-Dec-07 16:59N 01°16' E 103°47'0 0.0
2017-Dec-07 16:26N 01°16' E 103°47'0 0.0
2017-Dec-07 15:56N 01°16' E 103°47'0 0.0
2017-Dec-07 15:29N 01°16' E 103°47'0 0.0
2017-Dec-07 14:59N 01°16' E 103°47'0 0.0
2017-Dec-07 14:29N 01°16' E 103°47'0 0.0
2017-Dec-07 13:56N 01°16' E 103°47'0 0.0
2017-Dec-07 13:26N 01°16' E 103°47'0 0.0
2017-Dec-07 12:59N 01°16' E 103°47'0 0.0
2017-Dec-07 12:29N 01°16' E 103°47'0 0.0
2017-Dec-07 11:59N 01°16' E 103°47'0 0.0
2017-Dec-07 11:29N 01°16' E 103°47'0 0.0
2017-Dec-07 10:59N 01°16' E 103°47'0 0.0
2017-Dec-07 10:29N 01°16' E 103°47'0 0.0
2017-Dec-07 09:56N 01°16' E 103°47'0 0.0
2017-Dec-07 09:29N 01°16' E 103°47'0 0.0
2017-Dec-07 08:59N 01°16' E 103°47'0 0.0
2017-Dec-07 08:29N 01°16' E 103°47'0 0.0
2017-Dec-07 07:56N 01°16' E 103°47'0 0.0
2017-Dec-07 07:29N 01°16' E 103°47'0 0.0
2017-Dec-07 06:59N 01°16' E 103°47'0 0.0
2017-Dec-07 06:26N 01°16' E 103°47'0 0.0
2017-Dec-07 06:00N 01°16' E 103°47'1 1.6
2017-Dec-07 05:30N 01°15' E 103°47'1 1.2
2017-Dec-07 05:00N 01°15' E 103°47'4 7.1
2017-Dec-07 04:30N 01°12' E 103°50'5 9.7
2017-Dec-07 04:00N 01°14' E 103°54'510.4
2017-Dec-07 03:30N 01°15' E 103°59'611.7
2017-Dec-07 03:00N 01°16' E 104°05'714.4
2017-Dec-07 02:30N 01°17' E 104°12'  
2017-Dec-01 14:59N 24°15' E 118°15'815.9
2017-Dec-01 14:30N 24°21' E 118°09'611.8
2017-Dec-01 14:00N 24°25' E 118°05'5 9.7
2017-Dec-01 13:30N 24°27' E 117°60'1 0.7
2017-Dec-01 11:45N 24°27' E 117°58'0 0.0
2017-Nov-30 14:37N 24°27' E 117°58'0 1.7
2017-Nov-30 14:29N 24°27' E 117°59'3 6.5
2017-Nov-30 14:00N 24°26' E 118°02'510.7
2017-Nov-30 13:30N 24°23' E 118°07'510.3
2017-Nov-30 13:00N 24°20' E 118°11'712.9
2017-Nov-30 12:27N 24°14' E 118°16'  

Dump ship's entire track history